sensor_id;sensor_type;location;lat;lon;timestamp;P1;durP1;ratioP1;P2;durP2;ratioP2
4148;SDS011;2088;51.032;7.082;2022-10-19T00:00:12;5.97;;;3.27;;
4148;SDS011;2088;51.032;7.082;2022-10-19T00:02:39;7.10;;;3.40;;
4148;SDS011;2088;51.032;7.082;2022-10-19T00:05:07;6.90;;;3.60;;
4148;SDS011;2088;51.032;7.082;2022-10-19T00:07:34;6.53;;;3.40;;
4148;SDS011;2088;51.032;7.082;2022-10-19T00:10:00;6.73;;;3.77;;
4148;SDS011;2088;51.032;7.082;2022-10-19T00:12:27;6.67;;;2.50;;
4148;SDS011;2088;51.032;7.082;2022-10-19T00:14:53;10.93;;;3.90;;
4148;SDS011;2088;51.032;7.082;2022-10-19T00:17:19;9.63;;;3.30;;
4148;SDS011;2088;51.032;7.082;2022-10-19T00:19:46;16.20;;;5.23;;
4148;SDS011;2088;51.032;7.082;2022-10-19T00:22:14;11.97;;;3.63;;
4148;SDS011;2088;51.032;7.082;2022-10-19T00:24:40;10.77;;;4.13;;
4148;SDS011;2088;51.032;7.082;2022-10-19T00:27:06;6.63;;;4.10;;
4148;SDS011;2088;51.032;7.082;2022-10-19T00:29:33;8.03;;;3.47;;
4148;SDS011;2088;51.032;7.082;2022-10-19T00:31:59;6.50;;;3.57;;
4148;SDS011;2088;51.032;7.082;2022-10-19T00:34:26;10.43;;;3.60;;
4148;SDS011;2088;51.032;7.082;2022-10-19T00:36:52;15.53;;;4.13;;
4148;SDS011;2088;51.032;7.082;2022-10-19T00:39:20;7.97;;;3.50;;
4148;SDS011;2088;51.032;7.082;2022-10-19T00:41:46;9.20;;;3.53;;
4148;SDS011;2088;51.032;7.082;2022-10-19T00:47:17;5.73;;;2.60;;
4148;SDS011;2088;51.032;7.082;2022-10-19T00:49:48;5.30;;;2.93;;
4148;SDS011;2088;51.032;7.082;2022-10-19T00:52:15;13.07;;;3.57;;
4148;SDS011;2088;51.032;7.082;2022-10-19T00:54:46;9.47;;;3.83;;
4148;SDS011;2088;51.032;7.082;2022-10-19T00:57:13;7.17;;;3.33;;
4148;SDS011;2088;51.032;7.082;2022-10-19T00:59:41;8.17;;;2.67;;
4148;SDS011;2088;51.032;7.082;2022-10-19T01:02:09;7.20;;;3.17;;
4148;SDS011;2088;51.032;7.082;2022-10-19T01:04:36;12.90;;;2.87;;
4148;SDS011;2088;51.032;7.082;2022-10-19T01:07:07;6.20;;;2.63;;
4148;SDS011;2088;51.032;7.082;2022-10-19T01:09:34;6.93;;;3.33;;
4148;SDS011;2088;51.032;7.082;2022-10-19T01:12:02;8.47;;;3.50;;
4148;SDS011;2088;51.032;7.082;2022-10-19T01:14:37;8.23;;;2.90;;
4148;SDS011;2088;51.032;7.082;2022-10-19T01:17:17;6.67;;;2.53;;
4148;SDS011;2088;51.032;7.082;2022-10-19T01:20:11;10.27;;;2.87;;
4148;SDS011;2088;51.032;7.082;2022-10-19T01:26:19;3.40;;;2.57;;
4148;SDS011;2088;51.032;7.082;2022-10-19T01:29:04;6.40;;;3.83;;
4148;SDS011;2088;51.032;7.082;2022-10-19T01:31:39;7.00;;;2.77;;
4148;SDS011;2088;51.032;7.082;2022-10-19T01:34:12;10.63;;;3.10;;
4148;SDS011;2088;51.032;7.082;2022-10-19T01:36:47;6.10;;;2.90;;
4148;SDS011;2088;51.032;7.082;2022-10-19T01:39:22;4.77;;;3.20;;
4148;SDS011;2088;51.032;7.082;2022-10-19T01:41:55;4.57;;;3.17;;
4148;SDS011;2088;51.032;7.082;2022-10-19T01:44:27;15.43;;;3.10;;
4148;SDS011;2088;51.032;7.082;2022-10-19T01:47:02;6.87;;;3.60;;
4148;SDS011;2088;51.032;7.082;2022-10-19T01:49:32;9.07;;;3.33;;
4148;SDS011;2088;51.032;7.082;2022-10-19T01:52:05;5.93;;;3.00;;
4148;SDS011;2088;51.032;7.082;2022-10-19T01:54:35;13.90;;;4.33;;
4148;SDS011;2088;51.032;7.082;2022-10-19T01:57:19;9.27;;;4.00;;
4148;SDS011;2088;51.032;7.082;2022-10-19T01:59:48;8.70;;;3.90;;
4148;SDS011;2088;51.032;7.082;2022-10-19T02:02:17;5.67;;;3.17;;
4148;SDS011;2088;51.032;7.082;2022-10-19T02:04:44;13.70;;;3.50;;
4148;SDS011;2088;51.032;7.082;2022-10-19T02:07:14;39.83;;;4.83;;
4148;SDS011;2088;51.032;7.082;2022-10-19T02:09:41;8.20;;;3.63;;
4148;SDS011;2088;51.032;7.082;2022-10-19T02:12:08;8.77;;;3.40;;
4148;SDS011;2088;51.032;7.082;2022-10-19T02:14:37;7.10;;;3.47;;
4148;SDS011;2088;51.032;7.082;2022-10-19T02:17:07;6.40;;;4.00;;
4148;SDS011;2088;51.032;7.082;2022-10-19T02:19:36;9.83;;;4.10;;
4148;SDS011;2088;51.032;7.082;2022-10-19T02:22:03;21.73;;;5.10;;
4148;SDS011;2088;51.032;7.082;2022-10-19T02:24:29;10.30;;;3.93;;
4148;SDS011;2088;51.032;7.082;2022-10-19T02:26:56;12.13;;;6.27;;
4148;SDS011;2088;51.032;7.082;2022-10-19T02:29:24;18.50;;;4.20;;
4148;SDS011;2088;51.032;7.082;2022-10-19T02:31:52;8.30;;;3.83;;
4148;SDS011;2088;51.032;7.082;2022-10-19T02:34:18;6.53;;;3.70;;
4148;SDS011;2088;51.032;7.082;2022-10-19T02:36:46;7.30;;;4.27;;
4148;SDS011;2088;51.032;7.082;2022-10-19T02:39:13;9.60;;;4.23;;
4148;SDS011;2088;51.032;7.082;2022-10-19T02:41:41;12.37;;;3.60;;
4148;SDS011;2088;51.032;7.082;2022-10-19T02:44:12;31.67;;;5.13;;
4148;SDS011;2088;51.032;7.082;2022-10-19T02:46:43;6.97;;;3.10;;
4148;SDS011;2088;51.032;7.082;2022-10-19T02:49:11;6.60;;;3.73;;
4148;SDS011;2088;51.032;7.082;2022-10-19T02:51:39;8.57;;;3.80;;
4148;SDS011;2088;51.032;7.082;2022-10-19T02:54:22;4.97;;;3.57;;
4148;SDS011;2088;51.032;7.082;2022-10-19T02:56:49;10.37;;;4.40;;
4148;SDS011;2088;51.032;7.082;2022-10-19T02:59:15;6.97;;;3.57;;
4148;SDS011;2088;51.032;7.082;2022-10-19T03:01:42;9.10;;;3.17;;
4148;SDS011;2088;51.032;7.082;2022-10-19T03:04:08;8.80;;;3.43;;
4148;SDS011;2088;51.032;7.082;2022-10-19T03:06:35;8.40;;;4.03;;
4148;SDS011;2088;51.032;7.082;2022-10-19T03:09:01;8.83;;;2.93;;
4148;SDS011;2088;51.032;7.082;2022-10-19T03:11:29;13.23;;;3.57;;
4148;SDS011;2088;51.032;7.082;2022-10-19T03:13:56;5.43;;;2.83;;
4148;SDS011;2088;51.032;7.082;2022-10-19T03:16:22;5.40;;;3.30;;
4148;SDS011;2088;51.032;7.082;2022-10-19T03:18:49;6.43;;;3.13;;
4148;SDS011;2088;51.032;7.082;2022-10-19T03:21:16;8.70;;;3.80;;
4148;SDS011;2088;51.032;7.082;2022-10-19T03:23:44;5.57;;;3.30;;
4148;SDS011;2088;51.032;7.082;2022-10-19T03:26:11;7.07;;;3.83;;
4148;SDS011;2088;51.032;7.082;2022-10-19T03:28:41;18.23;;;3.97;;
4148;SDS011;2088;51.032;7.082;2022-10-19T03:31:08;7.83;;;3.87;;
4148;SDS011;2088;51.032;7.082;2022-10-19T03:33:34;9.60;;;4.70;;
4148;SDS011;2088;51.032;7.082;2022-10-19T03:36:18;6.87;;;4.50;;
4148;SDS011;2088;51.032;7.082;2022-10-19T03:38:48;10.33;;;3.57;;
4148;SDS011;2088;51.032;7.082;2022-10-19T03:41:15;8.17;;;3.00;;
4148;SDS011;2088;51.032;7.082;2022-10-19T03:43:43;13.33;;;3.63;;
4148;SDS011;2088;51.032;7.082;2022-10-19T03:46:09;7.97;;;3.20;;
4148;SDS011;2088;51.032;7.082;2022-10-19T03:48:36;7.00;;;3.77;;
4148;SDS011;2088;51.032;7.082;2022-10-19T03:51:03;8.50;;;3.20;;
4148;SDS011;2088;51.032;7.082;2022-10-19T03:53:31;8.67;;;3.90;;
4148;SDS011;2088;51.032;7.082;2022-10-19T03:56:01;4.77;;;3.20;;
4148;SDS011;2088;51.032;7.082;2022-10-19T03:58:31;4.90;;;3.27;;
4148;SDS011;2088;51.032;7.082;2022-10-19T04:01:00;4.67;;;3.00;;
4148;SDS011;2088;51.032;7.082;2022-10-19T04:03:27;10.53;;;2.93;;
4148;SDS011;2088;51.032;7.082;2022-10-19T04:05:59;12.80;;;2.57;;
4148;SDS011;2088;51.032;7.082;2022-10-19T04:08:27;7.90;;;4.53;;
4148;SDS011;2088;51.032;7.082;2022-10-19T04:10:57;6.90;;;3.83;;
4148;SDS011;2088;51.032;7.082;2022-10-19T04:13:24;10.90;;;4.50;;
4148;SDS011;2088;51.032;7.082;2022-10-19T04:15:50;7.33;;;3.93;;
4148;SDS011;2088;51.032;7.082;2022-10-19T04:18:18;6.07;;;3.20;;
4148;SDS011;2088;51.032;7.082;2022-10-19T04:20:44;5.70;;;3.73;;
4148;SDS011;2088;51.032;7.082;2022-10-19T04:23:11;5.67;;;2.93;;
4148;SDS011;2088;51.032;7.082;2022-10-19T04:25:37;9.00;;;3.80;;
4148;SDS011;2088;51.032;7.082;2022-10-19T04:28:04;9.10;;;3.57;;
4148;SDS011;2088;51.032;7.082;2022-10-19T04:30:30;5.70;;;3.50;;
4148;SDS011;2088;51.032;7.082;2022-10-19T04:32:57;9.00;;;4.60;;
4148;SDS011;2088;51.032;7.082;2022-10-19T04:35:24;7.50;;;3.30;;
4148;SDS011;2088;51.032;7.082;2022-10-19T04:37:51;9.00;;;3.60;;
4148;SDS011;2088;51.032;7.082;2022-10-19T04:40:17;12.87;;;2.80;;
4148;SDS011;2088;51.032;7.082;2022-10-19T04:42:44;5.97;;;3.03;;
4148;SDS011;2088;51.032;7.082;2022-10-19T04:45:10;10.30;;;4.20;;
4148;SDS011;2088;51.032;7.082;2022-10-19T04:47:36;11.27;;;3.30;;
4148;SDS011;2088;51.032;7.082;2022-10-19T04:50:03;16.73;;;3.87;;
4148;SDS011;2088;51.032;7.082;2022-10-19T04:52:31;9.60;;;2.43;;
4148;SDS011;2088;51.032;7.082;2022-10-19T04:54:59;4.93;;;3.30;;
4148;SDS011;2088;51.032;7.082;2022-10-19T04:57:25;12.20;;;4.67;;
4148;SDS011;2088;51.032;7.082;2022-10-19T04:59:52;4.50;;;3.60;;
4148;SDS011;2088;51.032;7.082;2022-10-19T05:02:18;6.90;;;3.27;;
4148;SDS011;2088;51.032;7.082;2022-10-19T05:04:46;9.47;;;3.20;;
4148;SDS011;2088;51.032;7.082;2022-10-19T05:07:13;19.07;;;5.80;;
4148;SDS011;2088;51.032;7.082;2022-10-19T05:09:40;5.77;;;3.13;;
4148;SDS011;2088;51.032;7.082;2022-10-19T05:12:07;11.83;;;4.43;;
4148;SDS011;2088;51.032;7.082;2022-10-19T05:14:33;8.83;;;3.10;;
4148;SDS011;2088;51.032;7.082;2022-10-19T05:17:00;5.63;;;3.30;;
4148;SDS011;2088;51.032;7.082;2022-10-19T05:19:26;7.37;;;3.33;;
4148;SDS011;2088;51.032;7.082;2022-10-19T05:21:52;9.67;;;3.33;;
4148;SDS011;2088;51.032;7.082;2022-10-19T05:24:19;4.40;;;3.43;;
4148;SDS011;2088;51.032;7.082;2022-10-19T05:26:47;9.10;;;4.63;;
4148;SDS011;2088;51.032;7.082;2022-10-19T05:29:13;8.73;;;4.93;;
4148;SDS011;2088;51.032;7.082;2022-10-19T05:31:40;7.67;;;3.30;;
4148;SDS011;2088;51.032;7.082;2022-10-19T05:34:06;4.93;;;3.10;;
4148;SDS011;2088;51.032;7.082;2022-10-19T05:36:33;12.00;;;3.37;;
4148;SDS011;2088;51.032;7.082;2022-10-19T05:39:02;5.37;;;3.57;;
4148;SDS011;2088;51.032;7.082;2022-10-19T05:41:30;7.60;;;3.43;;
4148;SDS011;2088;51.032;7.082;2022-10-19T05:43:58;10.30;;;3.83;;
4148;SDS011;2088;51.032;7.082;2022-10-19T05:46:26;9.13;;;3.80;;
4148;SDS011;2088;51.032;7.082;2022-10-19T05:48:54;11.70;;;5.03;;
4148;SDS011;2088;51.032;7.082;2022-10-19T05:51:21;14.80;;;4.00;;
4148;SDS011;2088;51.032;7.082;2022-10-19T05:53:49;9.53;;;4.70;;
4148;SDS011;2088;51.032;7.082;2022-10-19T05:56:17;36.60;;;4.20;;
4148;SDS011;2088;51.032;7.082;2022-10-19T05:58:45;8.70;;;3.60;;
4148;SDS011;2088;51.032;7.082;2022-10-19T06:01:14;7.43;;;3.63;;
4148;SDS011;2088;51.032;7.082;2022-10-19T06:03:43;13.67;;;5.17;;
4148;SDS011;2088;51.032;7.082;2022-10-19T06:06:10;7.80;;;4.47;;
4148;SDS011;2088;51.032;7.082;2022-10-19T06:08:37;11.70;;;5.43;;
4148;SDS011;2088;51.032;7.082;2022-10-19T06:11:04;11.90;;;4.90;;
4148;SDS011;2088;51.032;7.082;2022-10-19T06:13:32;7.00;;;5.90;;
4148;SDS011;2088;51.032;7.082;2022-10-19T06:15:58;9.43;;;3.17;;
4148;SDS011;2088;51.032;7.082;2022-10-19T06:18:26;6.00;;;3.70;;
4148;SDS011;2088;51.032;7.082;2022-10-19T06:20:53;4.43;;;2.77;;
4148;SDS011;2088;51.032;7.082;2022-10-19T06:23:20;10.83;;;3.30;;
4148;SDS011;2088;51.032;7.082;2022-10-19T06:25:46;9.93;;;3.10;;
4148;SDS011;2088;51.032;7.082;2022-10-19T06:28:12;7.13;;;3.97;;
4148;SDS011;2088;51.032;7.082;2022-10-19T06:30:39;13.10;;;4.30;;
4148;SDS011;2088;51.032;7.082;2022-10-19T06:33:06;5.00;;;3.40;;
4148;SDS011;2088;51.032;7.082;2022-10-19T06:35:34;7.83;;;3.63;;
4148;SDS011;2088;51.032;7.082;2022-10-19T06:38:02;8.03;;;4.37;;
4148;SDS011;2088;51.032;7.082;2022-10-19T06:40:28;7.40;;;3.80;;
4148;SDS011;2088;51.032;7.082;2022-10-19T06:42:55;13.33;;;5.60;;
4148;SDS011;2088;51.032;7.082;2022-10-19T06:45:22;7.00;;;2.87;;
4148;SDS011;2088;51.032;7.082;2022-10-19T06:47:49;7.00;;;3.60;;
4148;SDS011;2088;51.032;7.082;2022-10-19T06:50:15;5.57;;;3.43;;
4148;SDS011;2088;51.032;7.082;2022-10-19T06:52:43;8.23;;;3.80;;
4148;SDS011;2088;51.032;7.082;2022-10-19T06:55:10;7.93;;;4.70;;
4148;SDS011;2088;51.032;7.082;2022-10-19T06:57:36;6.87;;;4.17;;
4148;SDS011;2088;51.032;7.082;2022-10-19T07:00:03;10.77;;;3.73;;
4148;SDS011;2088;51.032;7.082;2022-10-19T07:02:31;8.37;;;4.47;;
4148;SDS011;2088;51.032;7.082;2022-10-19T07:04:57;6.20;;;3.40;;
4148;SDS011;2088;51.032;7.082;2022-10-19T07:07:24;8.73;;;4.27;;
4148;SDS011;2088;51.032;7.082;2022-10-19T07:09:52;6.27;;;3.67;;
4148;SDS011;2088;51.032;7.082;2022-10-19T07:12:18;9.10;;;3.93;;
4148;SDS011;2088;51.032;7.082;2022-10-19T07:14:45;12.27;;;5.90;;
4148;SDS011;2088;51.032;7.082;2022-10-19T07:17:12;7.90;;;4.13;;
4148;SDS011;2088;51.032;7.082;2022-10-19T07:19:38;8.17;;;3.30;;
4148;SDS011;2088;51.032;7.082;2022-10-19T07:22:04;11.50;;;3.90;;
4148;SDS011;2088;51.032;7.082;2022-10-19T07:24:31;8.33;;;4.90;;
4148;SDS011;2088;51.032;7.082;2022-10-19T07:26:59;17.07;;;5.10;;
4148;SDS011;2088;51.032;7.082;2022-10-19T07:29:25;7.53;;;4.07;;
4148;SDS011;2088;51.032;7.082;2022-10-19T07:31:52;10.10;;;3.77;;
4148;SDS011;2088;51.032;7.082;2022-10-19T07:34:18;9.03;;;3.90;;
4148;SDS011;2088;51.032;7.082;2022-10-19T07:36:45;7.57;;;4.57;;
4148;SDS011;2088;51.032;7.082;2022-10-19T07:39:13;7.13;;;4.27;;
4148;SDS011;2088;51.032;7.082;2022-10-19T07:41:40;5.90;;;3.20;;
4148;SDS011;2088;51.032;7.082;2022-10-19T07:44:09;7.30;;;3.70;;
4148;SDS011;2088;51.032;7.082;2022-10-19T07:46:35;11.27;;;5.10;;
4148;SDS011;2088;51.032;7.082;2022-10-19T07:49:03;9.83;;;4.93;;
4148;SDS011;2088;51.032;7.082;2022-10-19T07:51:31;13.23;;;4.10;;
4148;SDS011;2088;51.032;7.082;2022-10-19T07:53:57;11.63;;;4.60;;
4148;SDS011;2088;51.032;7.082;2022-10-19T07:56:24;12.33;;;4.70;;
4148;SDS011;2088;51.032;7.082;2022-10-19T07:58:52;11.33;;;4.37;;
4148;SDS011;2088;51.032;7.082;2022-10-19T08:01:23;5.83;;;3.37;;
4148;SDS011;2088;51.032;7.082;2022-10-19T08:03:50;10.93;;;4.20;;
4148;SDS011;2088;51.032;7.082;2022-10-19T08:06:18;8.00;;;4.13;;
4148;SDS011;2088;51.032;7.082;2022-10-19T08:08:45;12.30;;;4.37;;
4148;SDS011;2088;51.032;7.082;2022-10-19T08:11:13;8.60;;;4.20;;
4148;SDS011;2088;51.032;7.082;2022-10-19T08:13:42;10.10;;;4.90;;
4148;SDS011;2088;51.032;7.082;2022-10-19T08:16:18;5.13;;;3.10;;
4148;SDS011;2088;51.032;7.082;2022-10-19T08:18:48;9.90;;;3.53;;
4148;SDS011;2088;51.032;7.082;2022-10-19T08:21:14;5.23;;;3.40;;
4148;SDS011;2088;51.032;7.082;2022-10-19T08:23:41;7.20;;;3.50;;
4148;SDS011;2088;51.032;7.082;2022-10-19T08:26:07;7.70;;;3.73;;
4148;SDS011;2088;51.032;7.082;2022-10-19T08:28:34;6.43;;;2.60;;
4148;SDS011;2088;51.032;7.082;2022-10-19T08:31:07;8.43;;;2.87;;
4148;SDS011;2088;51.032;7.082;2022-10-19T08:33:34;4.90;;;2.93;;
4148;SDS011;2088;51.032;7.082;2022-10-19T08:36:04;6.70;;;2.80;;
4148;SDS011;2088;51.032;7.082;2022-10-19T08:38:31;6.57;;;3.17;;
4148;SDS011;2088;51.032;7.082;2022-10-19T08:40:57;8.80;;;4.03;;
4148;SDS011;2088;51.032;7.082;2022-10-19T08:43:33;7.50;;;2.27;;
4148;SDS011;2088;51.032;7.082;2022-10-19T08:46:05;10.50;;;3.10;;
4148;SDS011;2088;51.032;7.082;2022-10-19T08:48:39;2.20;;;2.00;;
4148;SDS011;2088;51.032;7.082;2022-10-19T08:51:08;13.70;;;2.83;;
4148;SDS011;2088;51.032;7.082;2022-10-19T08:53:39;3.07;;;2.47;;
4148;SDS011;2088;51.032;7.082;2022-10-19T08:56:17;3.70;;;2.70;;
4148;SDS011;2088;51.032;7.082;2022-10-19T08:58:53;5.30;;;2.60;;
4148;SDS011;2088;51.032;7.082;2022-10-19T09:01:30;5.30;;;3.00;;
4148;SDS011;2088;51.032;7.082;2022-10-19T09:04:03;6.67;;;3.33;;
4148;SDS011;2088;51.032;7.082;2022-10-19T09:06:40;6.83;;;2.10;;
4148;SDS011;2088;51.032;7.082;2022-10-19T09:09:13;1.87;;;1.50;;
4148;SDS011;2088;51.032;7.082;2022-10-19T09:11:41;6.53;;;1.90;;
4148;SDS011;2088;51.032;7.082;2022-10-19T09:14:12;2.90;;;1.37;;
4148;SDS011;2088;51.032;7.082;2022-10-19T09:16:43;5.20;;;2.73;;
4148;SDS011;2088;51.032;7.082;2022-10-19T09:19:11;10.30;;;3.00;;
4148;SDS011;2088;51.032;7.082;2022-10-19T09:21:47;6.30;;;2.00;;
4148;SDS011;2088;51.032;7.082;2022-10-19T09:24:21;3.03;;;1.67;;
4148;SDS011;2088;51.032;7.082;2022-10-19T09:26:54;6.50;;;1.90;;
4148;SDS011;2088;51.032;7.082;2022-10-19T09:29:23;6.90;;;2.30;;
4148;SDS011;2088;51.032;7.082;2022-10-19T09:31:55;5.20;;;2.10;;
4148;SDS011;2088;51.032;7.082;2022-10-19T09:34:24;2.60;;;2.17;;
4148;SDS011;2088;51.032;7.082;2022-10-19T09:36:56;4.83;;;1.80;;
4148;SDS011;2088;51.032;7.082;2022-10-19T09:39:24;9.23;;;1.93;;
4148;SDS011;2088;51.032;7.082;2022-10-19T09:41:53;11.03;;;2.97;;
4148;SDS011;2088;51.032;7.082;2022-10-19T09:44:20;3.40;;;1.50;;
4148;SDS011;2088;51.032;7.082;2022-10-19T09:46:48;3.43;;;1.70;;
4148;SDS011;2088;51.032;7.082;2022-10-19T09:49:18;8.53;;;3.20;;
4148;SDS011;2088;51.032;7.082;2022-10-19T09:52:09;6.53;;;1.97;;
4148;SDS011;2088;51.032;7.082;2022-10-19T09:54:49;2.17;;;1.70;;
4148;SDS011;2088;51.032;7.082;2022-10-19T09:57:23;8.47;;;1.50;;
4148;SDS011;2088;51.032;7.082;2022-10-19T09:59:51;2.07;;;1.90;;
4148;SDS011;2088;51.032;7.082;2022-10-19T10:02:18;2.63;;;1.20;;
4148;SDS011;2088;51.032;7.082;2022-10-19T10:04:46;3.33;;;1.50;;
4148;SDS011;2088;51.032;7.082;2022-10-19T10:07:21;5.40;;;1.90;;
4148;SDS011;2088;51.032;7.082;2022-10-19T10:09:52;4.50;;;1.60;;
4148;SDS011;2088;51.032;7.082;2022-10-19T10:12:18;2.10;;;1.23;;
4148;SDS011;2088;51.032;7.082;2022-10-19T10:14:47;2.00;;;1.20;;
4148;SDS011;2088;51.032;7.082;2022-10-19T10:17:16;2.30;;;1.00;;
4148;SDS011;2088;51.032;7.082;2022-10-19T10:19:49;1.80;;;1.17;;
4148;SDS011;2088;51.032;7.082;2022-10-19T10:22:30;3.27;;;2.90;;
4148;SDS011;2088;51.032;7.082;2022-10-19T10:24:59;4.80;;;1.60;;
4148;SDS011;2088;51.032;7.082;2022-10-19T10:27:30;3.70;;;1.20;;
4148;SDS011;2088;51.032;7.082;2022-10-19T10:29:58;3.03;;;1.40;;
4148;SDS011;2088;51.032;7.082;2022-10-19T10:32:30;1.37;;;1.17;;
4148;SDS011;2088;51.032;7.082;2022-10-19T10:34:57;5.47;;;1.20;;
4148;SDS011;2088;51.032;7.082;2022-10-19T10:37:27;2.37;;;2.07;;
4148;SDS011;2088;51.032;7.082;2022-10-19T10:40:00;4.70;;;1.00;;
4148;SDS011;2088;51.032;7.082;2022-10-19T10:42:28;1.70;;;1.10;;
4148;SDS011;2088;51.032;7.082;2022-10-19T10:44:58;3.83;;;0.80;;
4148;SDS011;2088;51.032;7.082;2022-10-19T10:47:26;4.13;;;2.10;;
4148;SDS011;2088;51.032;7.082;2022-10-19T10:49:54;5.93;;;1.10;;
4148;SDS011;2088;51.032;7.082;2022-10-19T10:52:23;3.40;;;1.30;;
4148;SDS011;2088;51.032;7.082;2022-10-19T10:55:02;5.80;;;1.50;;
4148;SDS011;2088;51.032;7.082;2022-10-19T10:57:42;2.03;;;1.10;;
4148;SDS011;2088;51.032;7.082;2022-10-19T11:00:13;4.10;;;1.40;;
4148;SDS011;2088;51.032;7.082;2022-10-19T11:02:43;6.20;;;1.17;;
4148;SDS011;2088;51.032;7.082;2022-10-19T11:05:16;3.90;;;1.53;;
4148;SDS011;2088;51.032;7.082;2022-10-19T11:07:48;3.00;;;1.10;;
4148;SDS011;2088;51.032;7.082;2022-10-19T11:10:21;4.00;;;1.17;;
4148;SDS011;2088;51.032;7.082;2022-10-19T11:12:53;3.50;;;1.63;;
4148;SDS011;2088;51.032;7.082;2022-10-19T11:15:24;8.07;;;1.20;;
4148;SDS011;2088;51.032;7.082;2022-10-19T11:17:57;2.97;;;1.10;;
4148;SDS011;2088;51.032;7.082;2022-10-19T11:20:31;4.27;;;1.20;;
4148;SDS011;2088;51.032;7.082;2022-10-19T11:23:02;4.30;;;1.90;;
4148;SDS011;2088;51.032;7.082;2022-10-19T11:25:41;3.57;;;1.30;;
4148;SDS011;2088;51.032;7.082;2022-10-19T11:28:21;5.10;;;1.10;;
4148;SDS011;2088;51.032;7.082;2022-10-19T11:31:01;3.83;;;1.33;;
4148;SDS011;2088;51.032;7.082;2022-10-19T11:33:39;6.77;;;0.97;;
4148;SDS011;2088;51.032;7.082;2022-10-19T11:36:16;4.20;;;1.20;;
4148;SDS011;2088;51.032;7.082;2022-10-19T11:38:55;1.77;;;0.90;;
4148;SDS011;2088;51.032;7.082;2022-10-19T11:41:35;1.33;;;0.90;;
4148;SDS011;2088;51.032;7.082;2022-10-19T11:44:16;2.43;;;0.83;;
4148;SDS011;2088;51.032;7.082;2022-10-19T11:46:55;3.47;;;1.03;;
4148;SDS011;2088;51.032;7.082;2022-10-19T11:49:34;2.20;;;1.13;;
4148;SDS011;2088;51.032;7.082;2022-10-19T11:52:14;3.57;;;0.97;;
4148;SDS011;2088;51.032;7.082;2022-10-19T11:54:49;1.70;;;0.90;;
4148;SDS011;2088;51.032;7.082;2022-10-19T11:57:26;4.47;;;1.37;;
4148;SDS011;2088;51.032;7.082;2022-10-19T11:59:59;2.50;;;0.80;;
4148;SDS011;2088;51.032;7.082;2022-10-19T12:02:44;2.80;;;0.90;;
4148;SDS011;2088;51.032;7.082;2022-10-19T12:05:25;6.73;;;1.27;;
4148;SDS011;2088;51.032;7.082;2022-10-19T12:08:01;4.07;;;1.13;;
4148;SDS011;2088;51.032;7.082;2022-10-19T12:10:39;2.90;;;1.13;;
4148;SDS011;2088;51.032;7.082;2022-10-19T12:13:14;2.50;;;0.70;;
4148;SDS011;2088;51.032;7.082;2022-10-19T12:15:44;2.53;;;1.00;;
4148;SDS011;2088;51.032;7.082;2022-10-19T12:18:15;1.43;;;0.70;;
4148;SDS011;2088;51.032;7.082;2022-10-19T12:20:46;1.10;;;0.93;;
4148;SDS011;2088;51.032;7.082;2022-10-19T12:23:19;5.80;;;1.07;;
4148;SDS011;2088;51.032;7.082;2022-10-19T12:25:49;1.93;;;1.03;;
4148;SDS011;2088;51.032;7.082;2022-10-19T12:28:20;4.97;;;1.43;;
4148;SDS011;2088;51.032;7.082;2022-10-19T12:30:51;5.90;;;0.97;;
4148;SDS011;2088;51.032;7.082;2022-10-19T12:33:20;2.27;;;1.03;;
4148;SDS011;2088;51.032;7.082;2022-10-19T12:35:53;5.70;;;1.40;;
4148;SDS011;2088;51.032;7.082;2022-10-19T12:38:32;3.63;;;1.60;;
4148;SDS011;2088;51.032;7.082;2022-10-19T12:41:09;2.40;;;1.17;;
4148;SDS011;2088;51.032;7.082;2022-10-19T12:43:42;2.63;;;0.83;;
4148;SDS011;2088;51.032;7.082;2022-10-19T12:46:20;12.13;;;1.00;;
4148;SDS011;2088;51.032;7.082;2022-10-19T12:51:59;9.77;;;1.03;;
4148;SDS011;2088;51.032;7.082;2022-10-19T12:54:27;2.60;;;1.00;;
4148;SDS011;2088;51.032;7.082;2022-10-19T12:56:55;2.67;;;0.83;;
4148;SDS011;2088;51.032;7.082;2022-10-19T12:59:25;3.73;;;1.20;;
4148;SDS011;2088;51.032;7.082;2022-10-19T13:01:54;2.50;;;1.20;;
4148;SDS011;2088;51.032;7.082;2022-10-19T13:04:22;2.23;;;1.33;;
4148;SDS011;2088;51.032;7.082;2022-10-19T13:06:57;3.07;;;1.30;;
4148;SDS011;2088;51.032;7.082;2022-10-19T13:09:27;5.30;;;1.37;;
4148;SDS011;2088;51.032;7.082;2022-10-19T13:14:54;3.00;;;1.33;;
4148;SDS011;2088;51.032;7.082;2022-10-19T13:17:37;8.83;;;1.50;;
4148;SDS011;2088;51.032;7.082;2022-10-19T13:28:52;1.87;;;1.20;;
4148;SDS011;2088;51.032;7.082;2022-10-19T13:31:24;5.30;;;1.40;;
4148;SDS011;2088;51.032;7.082;2022-10-19T13:33:53;3.67;;;1.50;;
4148;SDS011;2088;51.032;7.082;2022-10-19T13:36:20;4.77;;;2.10;;
4148;SDS011;2088;51.032;7.082;2022-10-19T13:39:00;2.53;;;1.70;;
4148;SDS011;2088;51.032;7.082;2022-10-19T13:47:05;3.87;;;1.47;;
4148;SDS011;2088;51.032;7.082;2022-10-19T13:55:50;9.67;;;1.40;;
4148;SDS011;2088;51.032;7.082;2022-10-19T13:58:30;2.90;;;1.77;;
4148;SDS011;2088;51.032;7.082;2022-10-19T14:01:14;4.50;;;1.60;;
4148;SDS011;2088;51.032;7.082;2022-10-19T14:03:59;4.37;;;1.93;;
4148;SDS011;2088;51.032;7.082;2022-10-19T14:06:37;3.10;;;1.73;;
4148;SDS011;2088;51.032;7.082;2022-10-19T14:12:12;7.57;;;2.40;;
4148;SDS011;2088;51.032;7.082;2022-10-19T14:14:43;5.90;;;1.90;;
4148;SDS011;2088;51.032;7.082;2022-10-19T14:17:13;4.77;;;1.70;;
4148;SDS011;2088;51.032;7.082;2022-10-19T14:19:44;4.90;;;2.03;;
4148;SDS011;2088;51.032;7.082;2022-10-19T14:25:01;6.00;;;1.50;;
4148;SDS011;2088;51.032;7.082;2022-10-19T14:27:31;4.57;;;1.60;;
4148;SDS011;2088;51.032;7.082;2022-10-19T14:29:58;5.10;;;1.53;;
4148;SDS011;2088;51.032;7.082;2022-10-19T14:32:25;5.00;;;1.50;;
4148;SDS011;2088;51.032;7.082;2022-10-19T14:34:56;3.60;;;1.37;;
4148;SDS011;2088;51.032;7.082;2022-10-19T14:37:27;8.30;;;1.50;;
4148;SDS011;2088;51.032;7.082;2022-10-19T14:39:58;12.20;;;2.40;;
4148;SDS011;2088;51.032;7.082;2022-10-19T14:42:34;4.60;;;2.30;;
4148;SDS011;2088;51.032;7.082;2022-10-19T14:45:09;2.20;;;1.50;;
4148;SDS011;2088;51.032;7.082;2022-10-19T14:47:49;2.67;;;1.80;;
4148;SDS011;2088;51.032;7.082;2022-10-19T14:50:19;1.67;;;1.20;;
4148;SDS011;2088;51.032;7.082;2022-10-19T14:52:48;6.40;;;2.43;;
4148;SDS011;2088;51.032;7.082;2022-10-19T14:55:21;2.80;;;1.30;;
4148;SDS011;2088;51.032;7.082;2022-10-19T14:57:48;5.63;;;1.63;;
4148;SDS011;2088;51.032;7.082;2022-10-19T15:00:17;2.00;;;1.30;;
4148;SDS011;2088;51.032;7.082;2022-10-19T15:02:47;8.30;;;1.40;;
4148;SDS011;2088;51.032;7.082;2022-10-19T15:05:21;3.47;;;1.10;;
4148;SDS011;2088;51.032;7.082;2022-10-19T15:07:49;6.90;;;1.63;;
4148;SDS011;2088;51.032;7.082;2022-10-19T15:10:17;6.10;;;1.53;;
4148;SDS011;2088;51.032;7.082;2022-10-19T15:12:46;3.90;;;1.80;;
4148;SDS011;2088;51.032;7.082;2022-10-19T15:15:15;3.30;;;1.10;;
4148;SDS011;2088;51.032;7.082;2022-10-19T15:17:51;10.63;;;3.73;;
4148;SDS011;2088;51.032;7.082;2022-10-19T15:20:25;3.20;;;1.10;;
4148;SDS011;2088;51.032;7.082;2022-10-19T15:22:53;3.97;;;1.53;;
4148;SDS011;2088;51.032;7.082;2022-10-19T15:25:23;2.00;;;1.30;;
4148;SDS011;2088;51.032;7.082;2022-10-19T15:27:55;3.30;;;1.67;;
4148;SDS011;2088;51.032;7.082;2022-10-19T15:30:22;2.27;;;1.37;;
4148;SDS011;2088;51.032;7.082;2022-10-19T15:32:53;3.23;;;1.50;;
4148;SDS011;2088;51.032;7.082;2022-10-19T15:35:35;2.67;;;1.50;;
4148;SDS011;2088;51.032;7.082;2022-10-19T15:38:03;2.57;;;1.20;;
4148;SDS011;2088;51.032;7.082;2022-10-19T15:40:34;8.10;;;1.60;;
4148;SDS011;2088;51.032;7.082;2022-10-19T15:46:00;1.97;;;1.30;;
4148;SDS011;2088;51.032;7.082;2022-10-19T15:48:28;4.57;;;1.20;;
4148;SDS011;2088;51.032;7.082;2022-10-19T15:54:06;3.60;;;1.50;;
4148;SDS011;2088;51.032;7.082;2022-10-19T15:56:33;5.20;;;1.60;;
4148;SDS011;2088;51.032;7.082;2022-10-19T15:59:02;4.50;;;2.20;;
4148;SDS011;2088;51.032;7.082;2022-10-19T16:01:31;5.30;;;1.90;;
4148;SDS011;2088;51.032;7.082;2022-10-19T16:03:58;4.90;;;2.30;;
4148;SDS011;2088;51.032;7.082;2022-10-19T16:06:25;4.40;;;1.60;;
4148;SDS011;2088;51.032;7.082;2022-10-19T16:08:55;4.83;;;1.30;;
4148;SDS011;2088;51.032;7.082;2022-10-19T16:11:22;2.73;;;1.20;;
4148;SDS011;2088;51.032;7.082;2022-10-19T16:13:49;3.57;;;1.47;;